createdAt,value
2022-10-27T00:02:33.937Z,10.25
2022-10-27T00:05:38.475Z,10.25
2022-10-27T00:08:41.339Z,7.25
2022-10-27T00:11:44.161Z,8.40
2022-10-27T00:14:46.954Z,8.38
2022-10-27T00:17:49.758Z,13.43
2022-10-27T00:21:05.687Z,8.68
2022-10-27T00:24:08.505Z,7.25
2022-10-27T00:27:11.446Z,7.65
2022-10-27T00:30:14.482Z,10.05
2022-10-27T00:33:17.343Z,8.20
2022-10-27T00:36:23.379Z,7.32
2022-10-27T00:39:26.271Z,12.25
2022-10-27T00:42:29.094Z,8.43
2022-10-27T00:45:32.311Z,7.70
2022-10-27T00:48:35.596Z,5.25
2022-10-27T00:51:42.489Z,6.15
2022-10-27T00:54:45.414Z,9.57
2022-10-27T00:57:52.368Z,7.75
2022-10-27T01:00:55.641Z,7.75
2022-10-27T01:03:58.747Z,5.68
2022-10-27T01:07:03.308Z,6.90
2022-10-27T01:10:07.022Z,6.35
2022-10-27T01:13:10.327Z,7.57
2022-10-27T01:16:24.884Z,8.32
2022-10-27T01:19:56.881Z,8.50
2022-10-27T01:23:06.267Z,5.68
2022-10-27T01:26:42.498Z,7.25
2022-10-27T01:30:06.386Z,8.98
2022-10-27T01:33:15.894Z,10.07
2022-10-27T01:36:25.529Z,6.75
2022-10-27T01:39:31.759Z,10.02
2022-10-27T01:42:41.879Z,5.57
2022-10-27T01:45:45.111Z,8.23
2022-10-27T01:48:49.518Z,6.60
2022-10-27T01:51:52.511Z,6.10
2022-10-27T01:54:56.317Z,5.38
2022-10-27T01:58:27.275Z,6.50
2022-10-27T02:01:44.313Z,5.88
2022-10-27T02:04:58.190Z,4.88
2022-10-27T02:08:09.212Z,6.43
2022-10-27T02:11:13.233Z,6.28
2022-10-27T02:14:16.741Z,6.15
2022-10-27T02:17:21.462Z,6.63
2022-10-27T02:20:29.004Z,6.18
2022-10-27T02:23:32.929Z,5.88
2022-10-27T02:26:43.721Z,7.13
2022-10-27T02:29:49.063Z,5.53
2022-10-27T02:32:52.446Z,7.65
2022-10-27T02:35:57.788Z,10.05
2022-10-27T02:39:00.650Z,5.82
2022-10-27T02:42:04.447Z,5.32
2022-10-27T02:45:08.198Z,6.40
2022-10-27T02:48:10.961Z,4.45
2022-10-27T02:51:15.203Z,7.20
2022-10-27T02:54:18.008Z,5.00
2022-10-27T02:57:20.898Z,6.35
2022-10-27T03:00:23.754Z,7.05
2022-10-27T03:03:26.565Z,3.92
2022-10-27T03:06:30.684Z,6.15
2022-10-27T03:09:33.449Z,6.78
2022-10-27T03:12:36.238Z,5.95
2022-10-27T03:15:39.208Z,5.65
2022-10-27T03:18:41.965Z,5.63
2022-10-27T03:21:46.191Z,4.00
2022-10-27T03:24:48.977Z,7.43
2022-10-27T03:27:51.780Z,6.85
2022-10-27T03:30:54.588Z,5.75
2022-10-27T03:33:57.337Z,3.55
2022-10-27T03:37:01.465Z,4.80
2022-10-27T03:40:04.643Z,6.65
2022-10-27T03:43:08.513Z,4.82
2022-10-27T03:46:11.574Z,6.28
2022-10-27T03:49:14.487Z,4.43
2022-10-27T03:52:19.039Z,2.95
2022-10-27T03:55:21.913Z,3.95
2022-10-27T03:58:24.689Z,5.40
2022-10-27T04:01:27.588Z,4.05
2022-10-27T04:04:30.489Z,4.75
2022-10-27T04:07:34.637Z,5.07
2022-10-27T04:10:38.324Z,4.03
2022-10-27T04:13:41.935Z,4.85
2022-10-27T04:16:44.885Z,5.90
2022-10-27T04:19:47.680Z,5.40
2022-10-27T04:22:52.179Z,4.53
2022-10-27T04:25:55.227Z,4.65
2022-10-27T04:28:57.990Z,4.30
2022-10-27T04:32:00.980Z,5.05
2022-10-27T04:35:03.773Z,3.85
2022-10-27T04:38:07.905Z,5.15
2022-10-27T04:41:10.795Z,3.63
2022-10-27T04:44:13.695Z,3.70
2022-10-27T04:47:16.605Z,4.63
2022-10-27T04:50:19.391Z,4.20
2022-10-27T04:53:23.703Z,3.20
2022-10-27T04:56:26.482Z,4.05
2022-10-27T04:59:29.370Z,5.47
2022-10-27T05:02:34.724Z,4.68
2022-10-27T05:05:40.707Z,4.90
2022-10-27T05:08:44.918Z,4.63
2022-10-27T05:11:47.777Z,5.30
2022-10-27T05:14:50.573Z,5.07
2022-10-27T05:17:54.016Z,3.60
2022-10-27T05:20:57.376Z,3.42
2022-10-27T05:24:01.716Z,3.15
2022-10-27T05:27:04.679Z,5.50
2022-10-27T05:30:09.306Z,6.15
2022-10-27T05:33:12.282Z,4.32
2022-10-27T05:36:15.187Z,3.58
2022-10-27T05:39:19.440Z,4.55
2022-10-27T05:42:22.220Z,4.72
2022-10-27T05:45:25.715Z,9.65
2022-10-27T05:48:29.894Z,7.15
2022-10-27T05:51:33.145Z,10.27
2022-10-27T05:54:37.422Z,9.02
2022-10-27T05:57:40.335Z,8.18
2022-10-27T06:00:43.153Z,9.18
2022-10-27T06:03:46.066Z,7.88
2022-10-27T06:06:48.977Z,6.25
2022-10-27T06:09:53.204Z,8.75
2022-10-27T06:13:01.939Z,13.23
2022-10-27T06:16:06.244Z,14.10
2022-10-27T06:19:11.195Z,10.52
2022-10-27T06:22:16.478Z,7.70
2022-10-27T06:25:20.984Z,6.93
2022-10-27T06:28:23.855Z,12.80
2022-10-27T06:31:26.665Z,14.80
2022-10-27T06:34:29.512Z,22.35
2022-10-27T06:37:32.450Z,12.45
2022-10-27T06:40:36.604Z,38.47
2022-10-27T06:43:39.413Z,22.42
2022-10-27T06:46:42.216Z,27.63
2022-10-27T06:49:45.057Z,33.00
2022-10-27T06:52:47.865Z,18.60
2022-10-27T06:55:52.094Z,28.42
2022-10-27T06:58:54.956Z,20.08
2022-10-27T07:01:57.806Z,25.02
2022-10-27T07:05:00.701Z,21.02
2022-10-27T07:08:03.789Z,21.52
2022-10-27T07:11:09.451Z,23.13
2022-10-27T07:14:12.232Z,18.00
2022-10-27T07:17:15.080Z,15.35
2022-10-27T07:20:17.969Z,16.85
2022-10-27T07:23:20.911Z,14.73
2022-10-27T07:26:25.074Z,10.45
2022-10-27T07:29:28.570Z,21.05
2022-10-27T07:32:31.334Z,14.27
2022-10-27T07:35:34.929Z,14.95
2022-10-27T07:38:38.346Z,12.65
2022-10-27T07:41:42.496Z,11.60
2022-10-27T07:44:45.312Z,11.77
2022-10-27T07:47:49.760Z,14.55
2022-10-27T07:50:52.852Z,11.93
2022-10-27T07:53:58.021Z,15.30
2022-10-27T07:57:02.589Z,9.40
2022-10-27T08:00:05.998Z,13.43
2022-10-27T08:03:17.064Z,9.95
2022-10-27T08:06:20.610Z,9.68
2022-10-27T08:09:23.441Z,8.85
2022-10-27T08:12:27.705Z,19.85
2022-10-27T08:15:30.960Z,16.67
2022-10-27T08:18:33.744Z,10.45
2022-10-27T08:21:36.549Z,11.93
2022-10-27T08:24:39.424Z,13.93
2022-10-27T08:27:43.556Z,10.32
2022-10-27T08:30:52.172Z,13.55
2022-10-27T08:33:55.398Z,11.13
2022-10-27T08:36:58.231Z,12.85
2022-10-27T08:40:01.121Z,12.30
2022-10-27T08:43:20.755Z,8.48
2022-10-27T08:46:27.335Z,12.25
2022-10-27T08:49:35.403Z,13.23
2022-10-27T08:52:42.904Z,10.90
2022-10-27T08:55:53.448Z,11.60
2022-10-27T08:58:57.802Z,6.40
2022-10-27T09:02:09.405Z,8.00
2022-10-27T09:05:24.623Z,5.95
2022-10-27T09:08:36.394Z,8.02
2022-10-27T09:11:47.746Z,7.22
2022-10-27T09:15:17.230Z,7.85
2022-10-27T09:18:25.685Z,5.90
2022-10-27T09:21:30.081Z,9.65
2022-10-27T09:24:38.209Z,9.02
2022-10-27T09:27:43.687Z,7.32
2022-10-27T09:30:51.801Z,5.78
2022-10-27T09:33:59.849Z,6.45
2022-10-27T09:37:03.076Z,12.48
2022-10-27T09:40:12.809Z,6.20
2022-10-27T09:43:15.635Z,8.60
2022-10-27T09:46:24.234Z,5.35
2022-10-27T09:49:30.815Z,6.53
2022-10-27T09:52:38.441Z,7.30
2022-10-27T09:55:51.959Z,6.55
2022-10-27T09:59:02.400Z,6.40
2022-10-27T10:02:23.608Z,5.47
2022-10-27T10:05:29.096Z,5.88
2022-10-27T10:08:35.978Z,4.28
2022-10-27T10:11:38.765Z,7.35
2022-10-27T10:14:41.665Z,7.53
2022-10-27T10:17:54.218Z,5.10
2022-10-27T10:20:59.465Z,6.70
2022-10-27T10:24:02.314Z,4.72
2022-10-27T10:27:07.817Z,4.78
2022-10-27T10:30:19.971Z,5.30
2022-10-27T10:33:28.025Z,4.10
2022-10-27T10:36:37.275Z,7.78
2022-10-27T10:39:40.281Z,6.53
2022-10-27T10:42:45.725Z,5.88
2022-10-27T10:45:52.840Z,4.25
2022-10-27T10:48:59.383Z,3.08
2022-10-27T10:52:05.030Z,4.78
2022-10-27T10:55:19.467Z,6.88
2022-10-27T10:58:24.631Z,4.75
2022-10-27T11:01:48.683Z,5.90
2022-10-27T11:04:51.771Z,5.10
2022-10-27T11:07:56.253Z,5.25
2022-10-27T11:10:59.735Z,4.10
2022-10-27T11:14:07.294Z,5.60
2022-10-27T11:17:11.897Z,9.15
2022-10-27T11:20:21.522Z,5.47
2022-10-27T11:23:28.150Z,3.55
2022-10-27T11:26:35.651Z,3.88
2022-10-27T11:29:45.688Z,6.68
2022-10-27T11:32:59.345Z,4.22
2022-10-27T11:36:11.966Z,3.17
2022-10-27T11:39:24.316Z,3.33
2022-10-27T11:42:36.920Z,3.15
2022-10-27T11:45:46.220Z,4.78
2022-10-27T11:48:55.733Z,3.58
2022-10-27T11:52:05.405Z,4.22
2022-10-27T11:55:14.318Z,5.00
2022-10-27T11:58:27.591Z,6.32
2022-10-27T12:01:44.663Z,3.53
2022-10-27T12:04:57.242Z,4.57
2022-10-27T12:08:08.734Z,3.45
2022-10-27T12:11:24.090Z,6.95
2022-10-27T12:14:33.758Z,4.43
2022-10-27T12:17:42.627Z,4.82
2022-10-27T12:20:51.977Z,3.55
2022-10-27T12:24:00.779Z,5.65
2022-10-27T12:27:10.357Z,4.18
2022-10-27T12:30:16.815Z,4.15
2022-10-27T12:33:28.730Z,5.53
2022-10-27T12:36:42.300Z,3.58
2022-10-27T12:39:52.850Z,4.10
2022-10-27T12:43:02.990Z,4.07
2022-10-27T12:46:24.327Z,4.28
2022-10-27T12:49:36.855Z,3.42
2022-10-27T12:52:51.927Z,4.45
2022-10-27T12:56:00.035Z,1.95
2022-10-27T12:59:17.023Z,4.75
2022-10-27T13:02:24.508Z,2.58
2022-10-27T13:05:56.041Z,2.97
2022-10-27T13:09:34.946Z,2.90
2022-10-27T13:12:51.134Z,2.75
2022-10-27T13:16:03.639Z,3.10
2022-10-27T13:19:33.008Z,2.75
2022-10-27T13:22:40.656Z,3.65
2022-10-27T13:25:51.918Z,6.20
2022-10-27T13:28:59.710Z,4.78
2022-10-27T13:32:27.907Z,4.28
2022-10-27T13:35:35.409Z,3.00
2022-10-27T13:38:38.194Z,2.60
2022-10-27T13:42:08.247Z,4.10
2022-10-27T13:45:44.529Z,2.92
2022-10-27T13:48:49.278Z,2.10
2022-10-27T13:52:11.540Z,4.68
2022-10-27T13:55:34.849Z,3.45
2022-10-27T13:58:54.879Z,3.00
2022-10-27T14:02:08.076Z,2.25
2022-10-27T14:05:29.374Z,2.40
2022-10-27T14:08:34.747Z,2.47
2022-10-27T14:11:37.637Z,2.67
2022-10-27T14:14:42.427Z,4.05
2022-10-27T14:17:48.190Z,4.15
2022-10-27T14:20:54.476Z,2.72
2022-10-27T14:24:04.836Z,2.30
2022-10-27T14:27:07.977Z,2.50
2022-10-27T14:30:18.947Z,3.38
2022-10-27T14:33:25.051Z,3.10
2022-10-27T14:36:31.457Z,3.22
2022-10-27T14:39:36.888Z,3.13
2022-10-27T14:42:41.514Z,3.55
2022-10-27T14:45:47.444Z,3.28
2022-10-27T14:48:58.600Z,6.28
2022-10-27T14:52:03.832Z,3.45
2022-10-27T14:55:07.812Z,2.78
2022-10-27T14:58:22.313Z,4.38
2022-10-27T15:01:34.550Z,2.47
2022-10-27T15:04:38.115Z,2.85
2022-10-27T15:07:46.294Z,3.08
2022-10-27T15:10:51.982Z,4.65
2022-10-27T15:13:56.140Z,3.30
2022-10-27T15:17:01.472Z,2.85
2022-10-27T15:20:07.341Z,2.70
2022-10-27T15:23:12.865Z,3.33
2022-10-27T15:26:19.650Z,4.15
2022-10-27T15:29:23.292Z,4.07
2022-10-27T15:32:32.860Z,3.03
2022-10-27T15:35:36.610Z,3.10
2022-10-27T15:38:39.771Z,3.42
2022-10-27T15:41:48.670Z,4.68
2022-10-27T15:44:51.919Z,4.78
2022-10-27T15:47:56.858Z,3.55
2022-10-27T15:51:02.909Z,3.22
2022-10-27T15:54:07.478Z,4.53
2022-10-27T15:57:31.815Z,3.55
2022-10-27T16:00:35.054Z,3.67
2022-10-27T16:03:42.724Z,4.13
2022-10-27T16:06:45.544Z,3.13
2022-10-27T16:09:49.486Z,4.65
2022-10-27T16:12:52.615Z,4.15
2022-10-27T16:15:55.531Z,3.67
2022-10-27T16:19:00.918Z,4.05
2022-10-27T16:22:04.487Z,4.05
2022-10-27T16:25:08.077Z,4.35
2022-10-27T16:28:16.544Z,5.97
2022-10-27T16:31:21.102Z,2.92
2022-10-27T16:34:27.863Z,3.13
2022-10-27T16:37:33.767Z,3.83
2022-10-27T16:40:38.690Z,3.25
2022-10-27T16:43:45.537Z,3.00
2022-10-27T16:46:48.304Z,3.28
2022-10-27T16:49:54.013Z,3.13
2022-10-27T16:52:57.697Z,3.25
2022-10-27T16:56:02.231Z,4.68
2022-10-27T16:59:05.602Z,3.70
2022-10-27T17:02:08.577Z,4.05
2022-10-27T17:05:13.105Z,3.65
2022-10-27T17:08:15.866Z,4.45
2022-10-27T17:11:18.914Z,3.45
2022-10-27T17:14:21.738Z,3.95
2022-10-27T17:17:24.540Z,3.80
2022-10-27T17:20:28.665Z,4.07
2022-10-27T17:23:31.811Z,4.90
2022-10-27T17:26:34.598Z,4.10
2022-10-27T17:29:37.374Z,3.40
2022-10-27T17:32:40.134Z,3.85
2022-10-27T17:35:44.287Z,3.25
2022-10-27T17:38:47.048Z,5.43
2022-10-27T17:41:49.811Z,4.88
2022-10-27T17:44:52.565Z,6.30
2022-10-27T17:47:55.443Z,5.32
2022-10-27T17:51:08.292Z,4.95
2022-10-27T17:54:12.056Z,4.85
2022-10-27T17:57:18.286Z,5.05
2022-10-27T18:00:21.883Z,4.78
2022-10-27T18:03:25.104Z,4.45
2022-10-27T18:06:30.265Z,4.60
2022-10-27T18:09:33.072Z,3.50
2022-10-27T18:12:35.915Z,3.92
2022-10-27T18:15:38.679Z,4.05
2022-10-27T18:18:42.251Z,4.72
2022-10-27T18:21:48.133Z,4.43
2022-10-27T18:24:50.908Z,4.25
2022-10-27T18:27:54.429Z,4.93
2022-10-27T18:31:01.335Z,4.78
2022-10-27T18:34:05.684Z,5.45
2022-10-27T18:37:09.867Z,4.28
2022-10-27T18:40:13.942Z,6.95
2022-10-27T18:43:16.790Z,6.22
2022-10-27T18:46:20.726Z,7.05
2022-10-27T18:49:46.739Z,7.38
2022-10-27T18:52:47.689Z,5.50
2022-10-27T18:55:50.530Z,6.13
2022-10-27T18:58:54.791Z,6.93
2022-10-27T19:01:57.758Z,5.82
2022-10-27T19:05:00.652Z,5.88
2022-10-27T19:08:04.853Z,6.25
2022-10-27T19:11:09.657Z,6.13
2022-10-27T19:14:12.543Z,5.47
2022-10-27T19:17:15.315Z,6.47
2022-10-27T19:20:18.258Z,5.85
2022-10-27T19:23:22.367Z,5.85
2022-10-27T19:26:28.525Z,5.82
2022-10-27T19:29:31.284Z,5.90
2022-10-27T19:32:35.073Z,5.72
2022-10-27T19:35:37.853Z,6.40
2022-10-27T19:38:43.272Z,5.90
2022-10-27T19:41:46.272Z,4.78
2022-10-27T19:44:50.483Z,4.97
2022-10-27T19:47:53.522Z,5.25
2022-10-27T19:50:56.827Z,6.05
2022-10-27T19:54:02.540Z,4.32
2022-10-27T19:57:05.487Z,5.50
2022-10-27T20:00:09.600Z,5.07
2022-10-27T20:03:12.456Z,5.03
2022-10-27T20:06:15.852Z,5.50
2022-10-27T20:09:22.005Z,4.13
2022-10-27T20:12:24.794Z,4.75
2022-10-27T20:15:27.541Z,5.60
2022-10-27T20:18:30.327Z,4.88
2022-10-27T20:21:33.373Z,4.75
2022-10-27T20:24:37.673Z,5.35
2022-10-27T20:27:40.507Z,4.97
2022-10-27T20:30:43.253Z,4.88
2022-10-27T20:33:46.037Z,6.68
2022-10-27T20:36:48.804Z,6.30
2022-10-27T20:39:52.995Z,6.30
2022-10-27T20:42:56.014Z,5.55
2022-10-27T20:45:59.889Z,8.48
2022-10-27T20:49:04.071Z,6.32
2022-10-27T20:52:07.129Z,6.53
2022-10-27T20:55:12.477Z,6.75
2022-10-27T20:58:15.879Z,5.00
2022-10-27T21:01:27.244Z,5.82
2022-10-27T21:04:30.277Z,4.38
2022-10-27T21:07:33.195Z,6.35
2022-10-27T21:10:41.779Z,6.28
2022-10-27T21:13:44.594Z,7.35
2022-10-27T21:16:51.463Z,7.13
2022-10-27T21:19:54.648Z,9.18
2022-10-27T21:22:57.582Z,6.60
2022-10-27T21:26:04.449Z,7.28
2022-10-27T21:29:07.281Z,8.13
2022-10-27T21:32:10.071Z,6.97
2022-10-27T21:35:12.858Z,6.07
2022-10-27T21:38:15.639Z,5.20
2022-10-27T21:41:21.480Z,7.45
2022-10-27T21:44:26.993Z,6.90
2022-10-27T21:47:29.795Z,6.80
2022-10-27T21:50:32.668Z,6.72
2022-10-27T21:53:35.437Z,7.53
2022-10-27T21:56:42.378Z,7.75
2022-10-27T21:59:45.185Z,7.88
2022-10-27T22:02:47.946Z,9.07
2022-10-27T22:05:55.254Z,7.30
2022-10-27T22:08:59.209Z,4.75
2022-10-27T22:12:03.539Z,8.02
2022-10-27T22:15:07.031Z,6.53
2022-10-27T22:18:09.792Z,9.30
2022-10-27T22:21:15.662Z,5.43
2022-10-27T22:24:18.449Z,7.97
2022-10-27T22:27:22.617Z,6.35
2022-10-27T22:30:25.427Z,7.28
2022-10-27T22:33:28.243Z,8.43
2022-10-27T22:36:31.506Z,7.85
2022-10-27T22:39:34.314Z,7.13
2022-10-27T22:42:38.445Z,5.93
2022-10-27T22:45:41.235Z,5.40
2022-10-27T22:48:44.028Z,5.88
2022-10-27T22:51:48.520Z,5.43
2022-10-27T22:54:51.287Z,7.43
2022-10-27T22:57:55.962Z,5.95
2022-10-27T23:01:05.091Z,6.70
2022-10-27T23:04:09.631Z,5.85
2022-10-27T23:07:12.472Z,7.40
2022-10-27T23:10:15.456Z,6.30
2022-10-27T23:13:19.634Z,7.45
2022-10-27T23:16:22.403Z,9.25
2022-10-27T23:19:25.189Z,7.47
2022-10-27T23:22:28.031Z,7.30
2022-10-27T23:25:32.803Z,7.25
2022-10-27T23:28:39.383Z,7.80
2022-10-27T23:31:42.162Z,6.80
2022-10-27T23:34:45.295Z,8.32
2022-10-27T23:37:48.066Z,6.72
2022-10-27T23:40:51.650Z,6.95
2022-10-27T23:43:58.337Z,7.55
2022-10-27T23:47:01.127Z,8.43
2022-10-27T23:50:03.922Z,6.88
2022-10-27T23:53:07.180Z,6.88
2022-10-27T23:56:11.888Z,7.25
2022-10-27T23:59:16.018Z,7.45
